METAR - Iceland

Last updated 21.11.2019 - at. 16:50

SIGMET for the last six hours

No SIGMET messages last 6 hours.

METAR from the last three hours

AerodromeTimeMessage
BIAR2019-11-21 16.00METAR BIAR 211600Z 00000KT 9999 BKN029 M01/M02 Q1005 REFZDZ R01/790094 RMK WIND VADLAHEIDI 11116KT
BIAR2019-11-21 15.00METAR BIAR 211500Z VRB01KT 9999 -FZDZ OVC031 M01/M03 Q1005 R01/790094 RMK WIND VADLAHEIDI 10915KT
BIAR2019-11-21 14.00METAR BIAR 211400Z 17003KT 140V200 9999 BKN036 M02/M03 Q1006 R01/790095 RMK WIND VADLAHEIDI 09813KT
BIBD2019-11-21 14.13METAR BIBD 211413Z 21003KT CAVOK 04/M01 Q1002
BIEG2019-11-21 16.00METAR BIEG 211600Z 36003KT 0200 R04/0400 FG VV001 01/01 Q1006 R04/390295 RMK WIND GAGNHEIDI 12025KT
BIEG2019-11-21 15.00METAR BIEG 211500Z 06003KT 0200 R04/0300 FG VV001 01/01 Q1006 R04/390295 RMK WIND GAGNHEIDI 12023KT
BIEG2019-11-21 14.00METAR BIEG 211400Z 35004KT 0300 R04/0500 FG VV002 01/01 Q1007 R04/390295 RMK WIND GAGNHEIDI 12028KT
BIGR2019-11-21 16.00METAR BIGR 211600Z 11017KT 9999 -RA BKN005 OVC095 05/04 Q1006
BIGR2019-11-21 14.00METAR BIGR 211400Z 11019KT 9999 SCT005 04/03 Q1006
BIHN2019-11-21 16.00METAR BIHN 211600Z 11011KT 9999 -SHRA FEW005 BKN017 OVC045 08/06 Q1005
BIHN2019-11-21 15.00METAR BIHN 211500Z 11011KT 9999 -SHRA FEW005 BKN017 OVC045 08/06 Q1005
BIHN2019-11-21 14.00METAR BIHN 211400Z 11013KT 9999 RA FEW005 BKN017 OVC025 08/06 Q1005
BIHU2019-11-21 16.00METAR BIHU 211600Z 10008KT 9999 BKN030 OVC045 04/01 Q1005
BIHU2019-11-21 15.00METAR BIHU 211500Z 15002KT 9999 SCT030 OVC045 03/01 Q1005
BIHU2019-11-21 14.00METAR BIHU 211400Z 17002KT 9999 -RA SCT030 OVC045 01/M01 Q1006
BIIS2019-11-21 16.00METAR BIIS 211600Z VRB02KT 9999 FEW060 BKN100 01/M01 Q1002 R88/390134
BIIS2019-11-21 15.00METAR BIIS 211500Z VRB02KT CAVOK 01/M01 Q1003 R88/390134
BIIS2019-11-21 14.00METAR BIIS 211400Z 00000KT 9999 FEW060 SCT090 01/M01 Q1004 R88/390134
BIKF2019-11-21 16.30METAR BIKF 211630Z 07016KT 9999 FEW025CB SCT040 BKN055 05/03 Q0998
BIKF2019-11-21 16.00METAR BIKF 211600Z 07016KT 9999 BKN040 05/03 Q0998
BIKF2019-11-21 15.30METAR BIKF 211530Z 07015KT 9999 BKN038 06/03 Q0998
BIKF2019-11-21 15.00METAR BIKF 211500Z 07017KT 9999 BKN027 06/04 Q0998
BIKF2019-11-21 14.30METAR BIKF 211430Z 06016KT 9999 FEW018 BKN029 06/04 Q0998
BIKF2019-11-21 14.00METAR BIKF 211400Z 06014KT 9999 FEW018 OVC027 06/04 Q0998
BIRK2019-11-21 16.00METAR BIRK 211600Z 06013KT 9999 FEW029 SCT42 BKN170 05/01 Q0998
BIRK2019-11-21 15.00METAR BIRK 211500Z 07018KT 9999 -RA SCT048 BKN060 06/01 Q0998
BIRK2019-11-21 14.00METAR BIRK 211400Z 07014KT 9999 FEW030 SCT050 BKN100 07/01 Q0999
BIVM2019-11-21 16.00METAR BIVM 211600Z 08018KT 9999 SCT007 BKN010 BKN020 07/06 Q0997
BIVM2019-11-21 15.11METAR BIVM 211511Z 08025KT 9999 SCT015 BKN020 OVC026 07/05 Q0997
BIVM2019-11-21 14.00METAR BIVM 211400Z 08020KT 9999 -RA FEW025 BKN032 07/05 Q0998
BIVO2019-11-21 15.00METAR BIVO 211500Z 00000KT 9999 SCT005 OVC010 01/// Q1007 R05/390195





Other related web sites


This website is built with Eplica CMS